createdAt,value
2018-05-11T00:01:37.281Z,58.54
2018-05-11T00:04:05.971Z,60.61
2018-05-11T00:06:34.584Z,61.54
2018-05-11T00:09:02.818Z,62.39
2018-05-11T00:11:31.388Z,63.84
2018-05-11T00:13:59.959Z,64.38
2018-05-11T00:16:28.506Z,65.14
2018-05-11T00:18:57.067Z,66.35
2018-05-11T00:21:25.622Z,66.30
2018-05-11T00:23:54.840Z,66.37
2018-05-11T00:26:25.022Z,66.19
2018-05-11T00:28:53.577Z,66.28
2018-05-11T00:31:22.165Z,66.24
2018-05-11T00:33:50.771Z,66.09
2018-05-11T00:36:19.335Z,65.81
2018-05-11T00:38:47.903Z,65.28
2018-05-11T00:41:16.463Z,65.29
2018-05-11T00:43:45.037Z,65.13
2018-05-11T00:46:13.605Z,65.29
2018-05-11T00:48:42.170Z,65.20
2018-05-11T00:51:10.875Z,65.15
2018-05-11T00:53:39.555Z,65.03
2018-05-11T00:56:07.885Z,65.08
2018-05-11T00:58:36.867Z,65.46
2018-05-11T01:01:05.117Z,65.47
2018-05-11T01:03:33.687Z,65.58
2018-05-11T01:06:02.499Z,65.35
2018-05-11T01:08:31.096Z,65.63
2018-05-11T01:10:59.667Z,66.25
2018-05-11T01:13:28.237Z,66.09
2018-05-11T01:15:57.020Z,65.62
2018-05-11T01:18:25.575Z,65.35
2018-05-11T01:20:54.184Z,65.01
2018-05-11T01:23:22.746Z,64.84
2018-05-11T01:25:51.369Z,64.79
2018-05-11T01:28:19.955Z,64.93
2018-05-11T01:30:48.520Z,65.23
2018-05-11T01:33:16.848Z,64.89
2018-05-11T01:35:45.420Z,64.74
2018-05-11T01:38:13.974Z,64.95
2018-05-11T01:40:42.533Z,65.03
2018-05-11T01:43:11.147Z,65.33
2018-05-11T01:45:39.995Z,65.31
2018-05-11T01:48:08.615Z,65.19
2018-05-11T01:50:37.195Z,65.46
2018-05-11T01:53:05.751Z,65.07
2018-05-11T01:55:34.316Z,65.43
2018-05-11T01:58:02.915Z,65.38
2018-05-11T02:00:31.524Z,65.41
2018-05-11T02:03:00.132Z,65.84
2018-05-11T02:05:28.707Z,65.25
2018-05-11T02:07:57.271Z,64.97
2018-05-11T02:10:25.907Z,64.62
2018-05-11T02:12:54.466Z,64.56
2018-05-11T02:15:23.037Z,64.57
2018-05-11T02:17:51.604Z,64.64
2018-05-11T02:20:20.206Z,64.71
2018-05-11T02:22:48.783Z,65.08
2018-05-11T02:25:17.365Z,65.49
2018-05-11T02:27:45.908Z,65.28
2018-05-11T02:30:14.546Z,65.43
2018-05-11T02:32:43.147Z,65.10
2018-05-11T02:35:11.741Z,65.33
2018-05-11T02:37:40.317Z,65.58
2018-05-11T02:40:08.875Z,65.58
2018-05-11T02:42:37.485Z,65.13
2018-05-11T02:45:06.067Z,65.17
2018-05-11T02:47:34.657Z,65.16
2018-05-11T02:50:03.299Z,64.99
2018-05-11T02:52:31.900Z,65.08
2018-05-11T02:55:00.550Z,65.16
2018-05-11T02:57:29.882Z,65.21
2018-05-11T02:59:58.502Z,65.40
2018-05-11T03:02:27.401Z,65.52
2018-05-11T03:04:56.014Z,65.57
2018-05-11T03:07:24.631Z,65.46
2018-05-11T03:09:53.251Z,65.74
2018-05-11T03:12:22.011Z,65.91
2018-05-11T03:14:50.570Z,65.83
2018-05-11T03:17:19.154Z,65.91
2018-05-11T03:19:49.847Z,66.09
2018-05-11T03:22:18.417Z,66.21
2018-05-11T03:24:46.985Z,65.83
2018-05-11T03:27:15.596Z,65.87
2018-05-11T03:29:44.149Z,65.87
2018-05-11T03:32:12.754Z,65.89
2018-05-11T03:34:41.315Z,65.98
2018-05-11T03:37:09.885Z,66.27
2018-05-11T03:39:38.453Z,65.41
2018-05-11T03:42:07.076Z,65.03
2018-05-11T03:44:35.667Z,65.08
2018-05-11T03:47:04.252Z,65.35
2018-05-11T03:49:32.899Z,65.20
2018-05-11T03:52:01.482Z,65.34
2018-05-11T03:54:30.124Z,65.25
2018-05-11T03:56:58.720Z,65.12
2018-05-11T03:59:27.662Z,65.13
2018-05-11T04:02:07.755Z,65.16
2018-05-11T04:04:47.393Z,65.50
2018-05-11T04:07:26.811Z,65.90
2018-05-11T04:09:56.799Z,65.65
2018-05-11T04:12:25.408Z,66.05
2018-05-11T04:14:53.976Z,66.13
2018-05-11T04:17:22.536Z,66.43
2018-05-11T04:19:51.098Z,66.79
2018-05-11T04:22:19.644Z,66.57
2018-05-11T04:24:48.225Z,66.15
2018-05-11T04:27:16.776Z,65.78
2018-05-11T04:29:45.388Z,65.57
2018-05-11T04:32:13.936Z,65.35
2018-05-11T04:34:42.519Z,64.18
2018-05-11T04:37:11.111Z,63.79
2018-05-11T04:39:39.856Z,63.70
2018-05-11T04:42:08.427Z,63.88
2018-05-11T04:44:37.177Z,63.42
2018-05-11T04:47:05.751Z,62.89
2018-05-11T04:49:34.353Z,61.95
2018-05-11T04:52:02.910Z,62.07
2018-05-11T04:54:31.470Z,61.05
2018-05-11T04:57:00.027Z,60.90
2018-05-11T04:59:28.614Z,61.13
2018-05-11T05:01:57.170Z,60.60
2018-05-11T05:04:25.767Z,60.61
2018-05-11T05:06:54.852Z,60.74
2018-05-11T05:09:23.408Z,60.18
2018-05-11T05:11:52.027Z,60.26
2018-05-11T05:14:21.029Z,60.91
2018-05-11T05:16:49.622Z,60.84
2018-05-11T05:19:17.983Z,61.13
2018-05-11T05:21:46.475Z,61.41
2018-05-11T05:24:15.028Z,61.76
2018-05-11T05:26:43.789Z,62.02
2018-05-11T05:29:13.729Z,61.91
2018-05-11T05:31:42.345Z,61.87
2018-05-11T05:34:10.899Z,61.86
2018-05-11T05:36:39.464Z,61.92
2018-05-11T05:39:08.265Z,62.16
2018-05-11T05:41:37.118Z,61.89
2018-05-11T05:44:05.702Z,61.39
2018-05-11T05:46:34.255Z,60.74
2018-05-11T05:49:02.812Z,60.25
2018-05-11T05:51:31.389Z,60.00
2018-05-11T05:54:01.193Z,59.65
2018-05-11T05:56:29.761Z,59.57
2018-05-11T05:58:58.367Z,59.31
2018-05-11T06:01:26.949Z,59.08
2018-05-11T06:03:55.519Z,58.56
2018-05-11T06:06:24.084Z,58.71
2018-05-11T06:08:52.643Z,59.35
2018-05-11T06:11:21.279Z,59.34
2018-05-11T06:13:52.604Z,59.20
2018-05-11T06:16:22.668Z,58.79
2018-05-11T06:18:51.262Z,58.74
2018-05-11T06:21:24.935Z,58.49
2018-05-11T06:23:53.856Z,58.51
2018-05-11T06:26:22.440Z,59.55
2018-05-11T06:28:52.020Z,59.48
2018-05-11T06:31:20.582Z,59.86
2018-05-11T06:33:49.152Z,59.28
2018-05-11T06:36:17.770Z,58.91
2018-05-11T06:38:46.329Z,59.27
2018-05-11T06:41:14.947Z,58.66
2018-05-11T06:43:43.553Z,58.68
2018-05-11T06:46:12.252Z,58.54
2018-05-11T06:48:41.017Z,59.17
2018-05-11T06:51:10.343Z,59.04
2018-05-11T06:53:38.903Z,58.95
2018-05-11T06:56:07.540Z,58.75
2018-05-11T06:58:36.150Z,59.13
2018-05-11T07:01:04.757Z,58.86
2018-05-11T07:03:33.320Z,58.93
2018-05-11T07:06:01.912Z,59.34
2018-05-11T07:08:30.537Z,59.38
2018-05-11T07:10:59.093Z,59.54
2018-05-11T07:13:27.698Z,59.64
2018-05-11T07:15:56.400Z,59.35
2018-05-11T07:18:24.958Z,59.24
2018-05-11T07:20:53.552Z,59.25
2018-05-11T07:23:22.171Z,58.98
2018-05-11T07:25:50.765Z,58.13
2018-05-11T07:28:19.577Z,57.88
2018-05-11T07:30:48.151Z,57.05
2018-05-11T07:33:16.751Z,56.71
2018-05-11T07:35:45.318Z,56.44
2018-05-11T07:38:13.953Z,55.74
2018-05-11T07:40:42.525Z,54.47
2018-05-11T07:43:11.213Z,53.83
2018-05-11T07:45:39.891Z,53.58
2018-05-11T07:48:08.163Z,53.27
2018-05-11T07:50:36.784Z,52.92
2018-05-11T07:53:05.355Z,53.57
2018-05-11T07:55:33.918Z,53.21
2018-05-11T07:58:02.491Z,52.73
2018-05-11T08:00:31.067Z,52.63
2018-05-11T08:02:59.656Z,51.86
2018-05-11T08:05:28.218Z,51.94
2018-05-11T08:07:56.787Z,51.29
2018-05-11T08:10:25.384Z,52.40
2018-05-11T08:12:53.971Z,51.55
2018-05-11T08:15:22.527Z,51.36
2018-05-11T08:17:51.105Z,51.57
2018-05-11T08:20:19.655Z,50.90
2018-05-11T08:22:48.232Z,50.54
2018-05-11T08:25:16.849Z,51.09
2018-05-11T08:27:45.417Z,51.63
2018-05-11T08:30:14.028Z,52.01
2018-05-11T08:32:42.507Z,51.92
2018-05-11T08:35:11.105Z,51.91
2018-05-11T08:37:39.691Z,51.43
2018-05-11T08:40:08.251Z,50.32
2018-05-11T08:42:36.829Z,50.51
2018-05-11T08:45:05.391Z,49.66
2018-05-11T08:47:33.969Z,49.38
2018-05-11T08:50:02.545Z,48.58
2018-05-11T08:52:31.110Z,48.16
2018-05-11T08:54:59.671Z,47.50
2018-05-11T08:57:28.264Z,48.03
2018-05-11T08:59:56.819Z,47.13
2018-05-11T09:02:25.375Z,48.13
2018-05-11T09:04:54.003Z,48.03
2018-05-11T09:07:22.593Z,47.88
2018-05-11T09:09:51.191Z,48.24
2018-05-11T09:12:19.801Z,47.83
2018-05-11T09:14:48.352Z,47.67
2018-05-11T09:17:16.927Z,47.09
2018-05-11T09:19:45.541Z,46.37
2018-05-11T09:22:14.156Z,46.34
2018-05-11T09:24:42.727Z,47.39
2018-05-11T09:27:11.299Z,47.36
2018-05-11T09:29:39.873Z,46.98
2018-05-11T09:32:08.450Z,46.91
2018-05-11T09:34:37.205Z,46.42
2018-05-11T09:37:05.811Z,45.73
2018-05-11T09:39:34.515Z,44.66
2018-05-11T09:42:03.223Z,45.15
2018-05-11T09:44:31.789Z,44.90
2018-05-11T09:47:00.381Z,45.13
2018-05-11T09:49:29.030Z,46.01
2018-05-11T09:51:57.796Z,47.05
2018-05-11T09:54:26.372Z,47.35
2018-05-11T09:56:56.248Z,47.12
2018-05-11T09:59:24.840Z,47.13
2018-05-11T10:01:53.514Z,46.58
2018-05-11T10:04:21.999Z,47.14
2018-05-11T10:06:50.221Z,47.25
2018-05-11T10:09:18.843Z,47.41
2018-05-11T10:11:47.417Z,47.85
2018-05-11T10:14:16.009Z,47.70
2018-05-11T10:16:44.584Z,47.01
2018-05-11T10:19:13.165Z,47.59
2018-05-11T10:21:41.723Z,46.85
2018-05-11T10:24:10.287Z,45.83
2018-05-11T10:26:38.840Z,45.39
2018-05-11T10:29:07.409Z,45.95
2018-05-11T10:31:35.751Z,45.61
2018-05-11T10:34:04.107Z,45.05
2018-05-11T10:36:32.670Z,44.03
2018-05-11T10:39:01.307Z,44.26
2018-05-11T10:41:29.901Z,44.07
2018-05-11T10:43:58.470Z,44.23
2018-05-11T10:46:27.044Z,44.05
2018-05-11T10:48:55.668Z,43.31
2018-05-11T10:51:24.443Z,42.69
2018-05-11T10:53:53.016Z,42.38
2018-05-11T10:56:21.583Z,42.05
2018-05-11T10:58:50.158Z,41.14
2018-05-11T11:01:18.747Z,41.52
2018-05-11T11:03:47.311Z,40.72
2018-05-11T11:06:15.926Z,39.54
2018-05-11T11:08:44.485Z,39.18
2018-05-11T11:11:13.054Z,39.63
2018-05-11T11:13:41.752Z,39.76
2018-05-11T11:16:10.399Z,40.65
2018-05-11T11:18:38.954Z,40.82
2018-05-11T11:21:07.304Z,40.48
2018-05-11T11:23:35.854Z,40.73
2018-05-11T11:26:04.441Z,40.58
2018-05-11T11:28:33.253Z,41.11
2018-05-11T11:31:01.911Z,40.93
2018-05-11T11:33:30.557Z,41.23
2018-05-11T11:35:59.120Z,41.83
2018-05-11T11:38:27.768Z,42.18
2018-05-11T11:40:56.192Z,40.68
2018-05-11T11:43:24.763Z,40.13
2018-05-11T11:45:53.354Z,39.59
2018-05-11T11:48:21.916Z,39.95
2018-05-11T11:50:50.497Z,40.14
2018-05-11T11:53:19.057Z,38.66
2018-05-11T11:55:47.691Z,37.22
2018-05-11T11:58:16.278Z,37.43
2018-05-11T12:00:44.896Z,36.74
2018-05-11T12:03:13.453Z,36.37
2018-05-11T12:05:42.035Z,35.05
2018-05-11T12:08:10.594Z,35.72
2018-05-11T12:10:39.139Z,36.83
2018-05-11T12:13:07.837Z,38.11
2018-05-11T12:15:36.418Z,40.03
2018-05-11T12:18:05.037Z,43.78
2018-05-11T12:20:33.595Z,44.30
2018-05-11T12:23:02.200Z,44.43
2018-05-11T12:25:30.769Z,45.84
2018-05-11T12:27:59.335Z,47.94
2018-05-11T12:30:27.931Z,49.96
2018-05-11T12:32:56.510Z,52.70
2018-05-11T12:35:25.066Z,55.95
2018-05-11T12:37:53.636Z,57.91
2018-05-11T12:40:22.219Z,60.77
2018-05-11T12:42:50.771Z,62.01
2018-05-11T12:45:19.340Z,62.22
2018-05-11T12:47:47.940Z,63.30
2018-05-11T12:50:16.523Z,62.67
2018-05-11T12:52:45.187Z,64.10
2018-05-11T12:55:13.901Z,64.75
2018-05-11T12:57:42.499Z,64.26
2018-05-11T13:00:11.101Z,63.91
2018-05-11T13:02:39.712Z,63.43
2018-05-11T13:05:08.277Z,66.22
2018-05-11T13:07:36.851Z,66.80
2018-05-11T13:10:05.069Z,67.23
2018-05-11T13:12:33.632Z,67.56
2018-05-11T13:15:02.276Z,67.38
2018-05-11T13:17:30.969Z,66.82
2018-05-11T13:19:59.530Z,67.14
2018-05-11T13:22:28.099Z,66.17
2018-05-11T13:24:56.340Z,64.51
2018-05-11T13:27:24.979Z,64.95
2018-05-11T13:29:53.534Z,61.61
2018-05-11T13:32:22.227Z,60.64
2018-05-11T13:34:50.840Z,60.14
2018-05-11T13:37:19.406Z,61.67
2018-05-11T13:39:47.978Z,64.98
2018-05-11T13:42:16.535Z,64.41
2018-05-11T13:44:45.131Z,62.98
2018-05-11T13:47:13.742Z,61.94
2018-05-11T13:49:42.389Z,61.59
2018-05-11T13:52:11.009Z,61.15
2018-05-11T13:54:39.562Z,60.88
2018-05-11T13:57:08.170Z,61.98
2018-05-11T13:59:36.723Z,62.80
2018-05-11T14:02:05.339Z,63.73
2018-05-11T14:04:33.910Z,63.16
2018-05-11T14:07:02.721Z,61.96
2018-05-11T14:09:31.316Z,61.98
2018-05-11T14:11:59.869Z,61.04
2018-05-11T14:14:28.935Z,62.25
2018-05-11T14:16:57.508Z,64.09
2018-05-11T14:19:26.101Z,63.73
2018-05-11T14:21:54.688Z,63.51
2018-05-11T14:24:23.283Z,62.50
2018-05-11T14:26:52.071Z,61.57
2018-05-11T14:29:20.773Z,63.26
2018-05-11T14:31:49.427Z,61.89
2018-05-11T14:34:17.946Z,62.02
2018-05-11T14:36:46.225Z,61.34
2018-05-11T14:39:14.829Z,61.26
2018-05-11T14:41:43.765Z,60.22
2018-05-11T14:44:12.142Z,59.74
2018-05-11T14:46:40.730Z,60.02
2018-05-11T14:49:09.316Z,57.81
2018-05-11T14:51:37.990Z,56.33
2018-05-11T14:54:06.562Z,55.22
2018-05-11T14:56:36.444Z,54.81
2018-05-11T14:59:05.011Z,55.83
2018-05-11T15:01:35.239Z,56.34
2018-05-11T15:04:03.825Z,55.71
2018-05-11T15:06:32.419Z,56.08
2018-05-11T15:09:00.762Z,55.77
2018-05-11T15:11:29.375Z,56.36
2018-05-11T15:13:57.978Z,55.93
2018-05-11T15:16:26.547Z,56.21
2018-05-11T15:18:55.147Z,56.05
2018-05-11T15:21:23.704Z,56.33
2018-05-11T15:23:52.589Z,55.23
2018-05-11T15:26:21.414Z,55.04
2018-05-11T15:28:49.974Z,54.75
2018-05-11T15:31:18.639Z,54.85
2018-05-11T15:33:48.178Z,55.17
2018-05-11T15:36:16.744Z,55.80
2018-05-11T15:38:45.309Z,56.50
2018-05-11T15:41:14.350Z,57.28
2018-05-11T15:43:42.932Z,56.78
2018-05-11T15:46:11.487Z,57.35
2018-05-11T15:48:40.063Z,57.02
2018-05-11T15:51:08.672Z,57.27
2018-05-11T15:53:37.258Z,57.10
2018-05-11T15:56:05.816Z,57.31
2018-05-11T15:58:34.404Z,57.35
2018-05-11T16:01:02.977Z,56.82
2018-05-11T16:03:31.544Z,56.67
2018-05-11T16:06:00.236Z,56.50
2018-05-11T16:08:28.904Z,56.13
2018-05-11T16:10:57.478Z,55.86
2018-05-11T16:13:26.031Z,55.46
2018-05-11T16:15:54.597Z,55.29
2018-05-11T16:18:23.147Z,55.47
2018-05-11T16:20:51.605Z,55.33
2018-05-11T16:23:20.376Z,55.47
2018-05-11T16:25:48.971Z,56.02
2018-05-11T16:28:17.577Z,55.68
2018-05-11T16:30:46.382Z,55.75
2018-05-11T16:33:14.962Z,56.07
2018-05-11T16:35:43.532Z,56.81
2018-05-11T16:38:12.088Z,57.70
2018-05-11T16:40:40.657Z,57.84
2018-05-11T16:43:09.235Z,58.16
2018-05-11T16:45:37.847Z,57.93
2018-05-11T16:48:06.405Z,58.30
2018-05-11T16:50:34.980Z,58.15
2018-05-11T16:53:03.319Z,58.17
2018-05-11T16:55:31.940Z,57.75
2018-05-11T16:58:00.613Z,57.62
2018-05-11T17:00:29.254Z,57.26
2018-05-11T17:02:57.869Z,57.52
2018-05-11T17:05:26.431Z,57.95
2018-05-11T17:07:54.997Z,58.65
2018-05-11T17:10:23.679Z,59.15
2018-05-11T17:12:52.372Z,59.68
2018-05-11T17:15:20.935Z,59.91
2018-05-11T17:17:49.496Z,60.29
2018-05-11T17:20:18.127Z,60.62
2018-05-11T17:22:46.760Z,60.83
2018-05-11T17:25:15.492Z,60.72
2018-05-11T17:27:44.050Z,60.93
2018-05-11T17:30:16.619Z,60.68
2018-05-11T17:32:44.948Z,60.37
2018-05-11T17:35:13.505Z,60.77
2018-05-11T17:37:42.067Z,61.14
2018-05-11T17:40:10.665Z,61.44
2018-05-11T17:42:39.307Z,61.38
2018-05-11T17:45:07.907Z,61.49
2018-05-11T17:47:36.246Z,61.38
2018-05-11T17:50:04.166Z,61.28
2018-05-11T17:52:32.734Z,61.12
2018-05-11T17:55:01.348Z,61.25
2018-05-11T17:57:29.915Z,61.62
2018-05-11T17:59:58.475Z,61.73
2018-05-11T18:02:27.030Z,62.20
2018-05-11T18:04:55.608Z,62.79
2018-05-11T18:07:24.211Z,63.36
2018-05-11T18:09:52.473Z,63.64
2018-05-11T18:12:21.144Z,63.95
2018-05-11T18:14:50.076Z,64.54
2018-05-11T18:17:18.669Z,64.54
2018-05-11T18:19:47.652Z,64.96
2018-05-11T18:22:16.255Z,64.38
2018-05-11T18:24:44.806Z,64.74
2018-05-11T18:27:13.409Z,64.96
2018-05-11T18:29:41.995Z,64.98
2018-05-11T18:32:10.596Z,65.76
2018-05-11T18:34:39.191Z,65.76
2018-05-11T18:37:08.235Z,65.64
2018-05-11T18:39:36.886Z,65.82
2018-05-11T18:42:05.793Z,65.74
2018-05-11T18:44:34.766Z,65.87
2018-05-11T18:47:03.196Z,65.78
2018-05-11T18:49:31.997Z,65.80
2018-05-11T18:52:00.356Z,65.86
2018-05-11T18:54:29.275Z,66.18
2018-05-11T18:56:57.721Z,66.44
2018-05-11T18:59:26.324Z,66.21
2018-05-11T19:01:54.892Z,66.18
2018-05-11T19:04:23.459Z,66.78
2018-05-11T19:06:52.323Z,66.96
2018-05-11T19:09:20.896Z,67.18
2018-05-11T19:11:49.530Z,67.42
2018-05-11T19:14:18.116Z,67.36
2018-05-11T19:16:46.729Z,67.53
2018-05-11T19:19:15.344Z,68.22
2018-05-11T19:21:43.904Z,68.26
